sensor_id;sensor_type;location;lat;lon;timestamp;P1;durP1;ratioP1;P2;durP2;ratioP2
17696;SDS011;8967;47.984;7.842;2023-08-06T00:01:58;2.53;;;1.50;;
17696;SDS011;8967;47.984;7.842;2023-08-06T00:04:26;3.45;;;1.90;;
17696;SDS011;8967;47.984;7.842;2023-08-06T00:06:55;4.65;;;1.70;;
17696;SDS011;8967;47.984;7.842;2023-08-06T00:09:24;2.42;;;1.63;;
17696;SDS011;8967;47.984;7.842;2023-08-06T00:11:51;2.30;;;1.92;;
17696;SDS011;8967;47.984;7.842;2023-08-06T00:14:18;2.58;;;1.63;;
17696;SDS011;8967;47.984;7.842;2023-08-06T00:16:44;3.90;;;1.63;;
17696;SDS011;8967;47.984;7.842;2023-08-06T00:19:11;4.53;;;1.80;;
17696;SDS011;8967;47.984;7.842;2023-08-06T00:21:40;1.88;;;1.63;;
17696;SDS011;8967;47.984;7.842;2023-08-06T00:24:08;3.33;;;1.73;;
17696;SDS011;8967;47.984;7.842;2023-08-06T00:26:35;5.07;;;1.85;;
17696;SDS011;8967;47.984;7.842;2023-08-06T00:29:02;1.48;;;1.35;;
17696;SDS011;8967;47.984;7.842;2023-08-06T00:31:29;2.47;;;1.70;;
17696;SDS011;8967;47.984;7.842;2023-08-06T00:33:56;4.05;;;1.58;;
17696;SDS011;8967;47.984;7.842;2023-08-06T00:36:23;2.60;;;1.45;;
17696;SDS011;8967;47.984;7.842;2023-08-06T00:38:51;1.70;;;1.48;;
17696;SDS011;8967;47.984;7.842;2023-08-06T00:41:18;2.05;;;1.50;;
17696;SDS011;8967;47.984;7.842;2023-08-06T00:43:45;1.83;;;1.52;;
17696;SDS011;8967;47.984;7.842;2023-08-06T00:46:12;2.67;;;1.65;;
17696;SDS011;8967;47.984;7.842;2023-08-06T00:48:39;3.28;;;1.60;;
17696;SDS011;8967;47.984;7.842;2023-08-06T00:51:06;4.10;;;1.80;;
17696;SDS011;8967;47.984;7.842;2023-08-06T00:53:35;2.38;;;1.63;;
17696;SDS011;8967;47.984;7.842;2023-08-06T00:56:07;2.42;;;1.42;;
17696;SDS011;8967;47.984;7.842;2023-08-06T00:58:37;2.95;;;1.60;;
17696;SDS011;8967;47.984;7.842;2023-08-06T01:01:08;2.67;;;1.52;;
17696;SDS011;8967;47.984;7.842;2023-08-06T01:03:35;2.65;;;1.40;;
17696;SDS011;8967;47.984;7.842;2023-08-06T01:06:02;3.13;;;1.88;;
17696;SDS011;8967;47.984;7.842;2023-08-06T01:08:30;4.18;;;2.00;;
17696;SDS011;8967;47.984;7.842;2023-08-06T01:11:08;2.38;;;1.60;;
17696;SDS011;8967;47.984;7.842;2023-08-06T01:13:45;1.83;;;1.45;;
17696;SDS011;8967;47.984;7.842;2023-08-06T01:16:15;3.28;;;1.50;;
17696;SDS011;8967;47.984;7.842;2023-08-06T01:18:43;4.07;;;1.75;;
17696;SDS011;8967;47.984;7.842;2023-08-06T01:21:13;2.13;;;1.30;;
17696;SDS011;8967;47.984;7.842;2023-08-06T01:23:39;2.58;;;1.67;;
17696;SDS011;8967;47.984;7.842;2023-08-06T01:26:10;1.63;;;1.17;;
17696;SDS011;8967;47.984;7.842;2023-08-06T01:28:47;1.70;;;1.35;;
17696;SDS011;8967;47.984;7.842;2023-08-06T01:31:19;1.50;;;1.30;;
17696;SDS011;8967;47.984;7.842;2023-08-06T01:33:49;3.00;;;1.25;;
17696;SDS011;8967;47.984;7.842;2023-08-06T01:36:20;1.45;;;1.10;;
17696;SDS011;8967;47.984;7.842;2023-08-06T01:38:48;2.05;;;1.40;;
17696;SDS011;8967;47.984;7.842;2023-08-06T01:41:19;2.13;;;1.30;;
17696;SDS011;8967;47.984;7.842;2023-08-06T01:43:46;3.30;;;1.20;;
17696;SDS011;8967;47.984;7.842;2023-08-06T01:46:13;1.52;;;1.15;;
17696;SDS011;8967;47.984;7.842;2023-08-06T01:48:40;2.33;;;1.30;;
17696;SDS011;8967;47.984;7.842;2023-08-06T01:51:06;3.55;;;1.55;;
17696;SDS011;8967;47.984;7.842;2023-08-06T01:53:35;3.70;;;1.40;;
17696;SDS011;8967;47.984;7.842;2023-08-06T01:56:02;2.05;;;1.40;;
17696;SDS011;8967;47.984;7.842;2023-08-06T01:58:29;2.03;;;1.17;;
17696;SDS011;8967;47.984;7.842;2023-08-06T02:00:56;2.75;;;1.40;;
17696;SDS011;8967;47.984;7.842;2023-08-06T02:03:23;1.73;;;1.55;;
17696;SDS011;8967;47.984;7.842;2023-08-06T02:05:50;2.90;;;1.50;;
17696;SDS011;8967;47.984;7.842;2023-08-06T02:08:17;3.92;;;1.38;;
17696;SDS011;8967;47.984;7.842;2023-08-06T02:10:46;2.38;;;1.40;;
17696;SDS011;8967;47.984;7.842;2023-08-06T02:13:13;1.98;;;1.30;;
17696;SDS011;8967;47.984;7.842;2023-08-06T02:15:41;2.05;;;1.50;;
17696;SDS011;8967;47.984;7.842;2023-08-06T02:18:12;3.78;;;1.45;;
17696;SDS011;8967;47.984;7.842;2023-08-06T02:20:38;3.58;;;1.10;;
17696;SDS011;8967;47.984;7.842;2023-08-06T02:23:08;3.17;;;1.10;;
17696;SDS011;8967;47.984;7.842;2023-08-06T02:25:35;4.53;;;1.30;;
17696;SDS011;8967;47.984;7.842;2023-08-06T02:28:03;2.35;;;1.40;;
17696;SDS011;8967;47.984;7.842;2023-08-06T02:30:30;1.35;;;1.00;;
17696;SDS011;8967;47.984;7.842;2023-08-06T02:32:58;2.72;;;1.40;;
17696;SDS011;8967;47.984;7.842;2023-08-06T02:35:26;3.95;;;1.25;;
17696;SDS011;8967;47.984;7.842;2023-08-06T02:37:55;2.75;;;1.30;;
17696;SDS011;8967;47.984;7.842;2023-08-06T02:40:22;2.10;;;0.93;;
17696;SDS011;8967;47.984;7.842;2023-08-06T02:42:49;2.70;;;0.80;;
17696;SDS011;8967;47.984;7.842;2023-08-06T02:45:18;1.77;;;1.08;;
17696;SDS011;8967;47.984;7.842;2023-08-06T02:47:44;1.27;;;0.90;;
17696;SDS011;8967;47.984;7.842;2023-08-06T02:50:11;1.02;;;0.80;;
17696;SDS011;8967;47.984;7.842;2023-08-06T02:52:38;1.58;;;0.77;;
17696;SDS011;8967;47.984;7.842;2023-08-06T02:55:07;1.75;;;0.75;;
17696;SDS011;8967;47.984;7.842;2023-08-06T02:57:38;1.65;;;0.70;;
17696;SDS011;8967;47.984;7.842;2023-08-06T03:00:06;1.73;;;0.80;;
17696;SDS011;8967;47.984;7.842;2023-08-06T03:02:35;1.98;;;0.70;;
17696;SDS011;8967;47.984;7.842;2023-08-06T03:05:23;3.45;;;0.73;;
17696;SDS011;8967;47.984;7.842;2023-08-06T03:07:50;0.80;;;0.60;;
17696;SDS011;8967;47.984;7.842;2023-08-06T03:10:22;1.83;;;0.50;;
17696;SDS011;8967;47.984;7.842;2023-08-06T03:12:51;2.20;;;0.93;;
17696;SDS011;8967;47.984;7.842;2023-08-06T03:15:19;1.92;;;0.80;;
17696;SDS011;8967;47.984;7.842;2023-08-06T03:17:51;3.60;;;0.65;;
17696;SDS011;8967;47.984;7.842;2023-08-06T03:20:20;0.88;;;0.55;;
17696;SDS011;8967;47.984;7.842;2023-08-06T03:22:47;2.88;;;0.95;;
17696;SDS011;8967;47.984;7.842;2023-08-06T03:25:14;3.15;;;0.60;;
17696;SDS011;8967;47.984;7.842;2023-08-06T03:27:45;1.05;;;0.57;;
17696;SDS011;8967;47.984;7.842;2023-08-06T03:30:14;0.50;;;0.40;;
17696;SDS011;8967;47.984;7.842;2023-08-06T03:32:41;1.13;;;0.50;;
17696;SDS011;8967;47.984;7.842;2023-08-06T03:35:10;1.35;;;0.60;;
17696;SDS011;8967;47.984;7.842;2023-08-06T03:37:39;1.10;;;0.60;;
17696;SDS011;8967;47.984;7.842;2023-08-06T03:40:06;1.40;;;0.60;;
17696;SDS011;8967;47.984;7.842;2023-08-06T03:42:34;0.75;;;0.45;;
17696;SDS011;8967;47.984;7.842;2023-08-06T03:45:01;3.15;;;0.60;;
17696;SDS011;8967;47.984;7.842;2023-08-06T03:47:28;0.32;;;0.32;;
17696;SDS011;8967;47.984;7.842;2023-08-06T03:49:56;1.52;;;0.63;;
17696;SDS011;8967;47.984;7.842;2023-08-06T03:52:24;1.45;;;0.30;;
17696;SDS011;8967;47.984;7.842;2023-08-06T03:54:53;0.93;;;0.50;;
17696;SDS011;8967;47.984;7.842;2023-08-06T03:57:21;2.78;;;0.40;;
17696;SDS011;8967;47.984;7.842;2023-08-06T03:59:48;2.78;;;0.57;;
17696;SDS011;8967;47.984;7.842;2023-08-06T04:02:16;1.30;;;0.40;;
17696;SDS011;8967;47.984;7.842;2023-08-06T04:04:43;1.15;;;0.45;;
17696;SDS011;8967;47.984;7.842;2023-08-06T04:07:10;0.80;;;0.43;;
17696;SDS011;8967;47.984;7.842;2023-08-06T04:12:20;0.77;;;0.47;;
17696;SDS011;8967;47.984;7.842;2023-08-06T04:14:50;1.13;;;0.35;;
17696;SDS011;8967;47.984;7.842;2023-08-06T04:17:18;2.47;;;0.30;;
17696;SDS011;8967;47.984;7.842;2023-08-06T04:19:46;0.65;;;0.45;;
17696;SDS011;8967;47.984;7.842;2023-08-06T04:22:14;1.73;;;0.60;;
17696;SDS011;8967;47.984;7.842;2023-08-06T04:24:41;3.10;;;0.60;;
17696;SDS011;8967;47.984;7.842;2023-08-06T04:27:12;1.80;;;0.50;;
17696;SDS011;8967;47.984;7.842;2023-08-06T04:29:41;1.45;;;0.55;;
17696;SDS011;8967;47.984;7.842;2023-08-06T04:32:09;0.95;;;0.60;;
17696;SDS011;8967;47.984;7.842;2023-08-06T04:34:41;4.30;;;0.90;;
17696;SDS011;8967;47.984;7.842;2023-08-06T04:37:08;1.80;;;1.00;;
17696;SDS011;8967;47.984;7.842;2023-08-06T04:39:35;1.85;;;0.80;;
17696;SDS011;8967;47.984;7.842;2023-08-06T04:42:02;5.68;;;0.85;;
17696;SDS011;8967;47.984;7.842;2023-08-06T04:44:32;7.25;;;1.30;;
17696;SDS011;8967;47.984;7.842;2023-08-06T04:46:59;4.75;;;1.10;;
17696;SDS011;8967;47.984;7.842;2023-08-06T04:49:28;3.38;;;1.50;;
17696;SDS011;8967;47.984;7.842;2023-08-06T04:51:55;4.93;;;1.00;;
17696;SDS011;8967;47.984;7.842;2023-08-06T04:54:21;4.20;;;0.90;;
17696;SDS011;8967;47.984;7.842;2023-08-06T04:56:51;4.10;;;0.85;;
17696;SDS011;8967;47.984;7.842;2023-08-06T04:59:19;4.18;;;1.23;;
17696;SDS011;8967;47.984;7.842;2023-08-06T05:01:47;5.22;;;1.30;;
17696;SDS011;8967;47.984;7.842;2023-08-06T05:04:14;3.95;;;1.35;;
17696;SDS011;8967;47.984;7.842;2023-08-06T05:06:41;6.75;;;1.95;;
17696;SDS011;8967;47.984;7.842;2023-08-06T05:09:07;4.95;;;1.23;;
17696;SDS011;8967;47.984;7.842;2023-08-06T05:11:34;6.68;;;1.98;;
17696;SDS011;8967;47.984;7.842;2023-08-06T05:14:01;2.85;;;1.10;;
17696;SDS011;8967;47.984;7.842;2023-08-06T05:16:28;7.25;;;1.30;;
17696;SDS011;8967;47.984;7.842;2023-08-06T05:18:56;3.03;;;1.35;;
17696;SDS011;8967;47.984;7.842;2023-08-06T05:21:23;2.58;;;1.08;;
17696;SDS011;8967;47.984;7.842;2023-08-06T05:23:50;4.80;;;1.20;;
17696;SDS011;8967;47.984;7.842;2023-08-06T05:26:17;3.83;;;1.08;;
17696;SDS011;8967;47.984;7.842;2023-08-06T05:28:44;3.35;;;0.80;;
17696;SDS011;8967;47.984;7.842;2023-08-06T05:31:11;5.32;;;1.23;;
17696;SDS011;8967;47.984;7.842;2023-08-06T05:33:38;3.22;;;1.00;;
17696;SDS011;8967;47.984;7.842;2023-08-06T05:36:06;4.32;;;1.50;;
17696;SDS011;8967;47.984;7.842;2023-08-06T05:38:35;5.13;;;2.35;;
17696;SDS011;8967;47.984;7.842;2023-08-06T05:41:02;6.38;;;1.63;;
17696;SDS011;8967;47.984;7.842;2023-08-06T05:43:32;1.45;;;1.05;;
17696;SDS011;8967;47.984;7.842;2023-08-06T05:45:58;2.42;;;1.10;;
17696;SDS011;8967;47.984;7.842;2023-08-06T05:48:25;5.72;;;1.20;;
17696;SDS011;8967;47.984;7.842;2023-08-06T05:50:53;2.78;;;0.98;;
17696;SDS011;8967;47.984;7.842;2023-08-06T05:53:21;3.75;;;1.10;;
17696;SDS011;8967;47.984;7.842;2023-08-06T05:55:48;3.00;;;1.13;;
17696;SDS011;8967;47.984;7.842;2023-08-06T05:58:15;4.68;;;1.25;;
17696;SDS011;8967;47.984;7.842;2023-08-06T06:00:41;2.53;;;1.17;;
17696;SDS011;8967;47.984;7.842;2023-08-06T06:03:11;1.95;;;0.98;;
17696;SDS011;8967;47.984;7.842;2023-08-06T06:05:40;6.30;;;1.00;;
17696;SDS011;8967;47.984;7.842;2023-08-06T06:08:09;3.70;;;1.08;;
17696;SDS011;8967;47.984;7.842;2023-08-06T06:10:37;6.25;;;1.27;;
17696;SDS011;8967;47.984;7.842;2023-08-06T06:13:04;4.78;;;1.30;;
17696;SDS011;8967;47.984;7.842;2023-08-06T06:15:31;1.40;;;0.70;;
17696;SDS011;8967;47.984;7.842;2023-08-06T06:18:00;2.60;;;1.27;;
17696;SDS011;8967;47.984;7.842;2023-08-06T06:20:27;7.18;;;1.23;;
17696;SDS011;8967;47.984;7.842;2023-08-06T06:22:56;2.22;;;0.68;;
17696;SDS011;8967;47.984;7.842;2023-08-06T06:25:25;3.88;;;1.20;;
17696;SDS011;8967;47.984;7.842;2023-08-06T06:27:56;4.80;;;0.80;;
17696;SDS011;8967;47.984;7.842;2023-08-06T06:30:24;3.78;;;1.17;;
17696;SDS011;8967;47.984;7.842;2023-08-06T06:32:51;2.97;;;0.80;;
17696;SDS011;8967;47.984;7.842;2023-08-06T06:35:17;5.13;;;1.45;;
17696;SDS011;8967;47.984;7.842;2023-08-06T06:37:46;3.78;;;1.02;;
17696;SDS011;8967;47.984;7.842;2023-08-06T06:40:14;3.63;;;0.85;;
17696;SDS011;8967;47.984;7.842;2023-08-06T06:42:41;2.25;;;0.70;;
17696;SDS011;8967;47.984;7.842;2023-08-06T06:45:10;3.97;;;1.00;;
17696;SDS011;8967;47.984;7.842;2023-08-06T06:47:37;2.33;;;0.73;;
17696;SDS011;8967;47.984;7.842;2023-08-06T06:50:04;1.25;;;1.00;;
17696;SDS011;8967;47.984;7.842;2023-08-06T06:52:32;1.52;;;0.75;;
17696;SDS011;8967;47.984;7.842;2023-08-06T06:54:59;3.30;;;0.90;;
17696;SDS011;8967;47.984;7.842;2023-08-06T06:57:28;1.63;;;0.70;;
17696;SDS011;8967;47.984;7.842;2023-08-06T06:59:54;1.42;;;0.60;;
17696;SDS011;8967;47.984;7.842;2023-08-06T07:02:25;2.95;;;1.08;;
17696;SDS011;8967;47.984;7.842;2023-08-06T07:04:52;1.88;;;0.70;;
17696;SDS011;8967;47.984;7.842;2023-08-06T07:07:19;2.53;;;0.70;;
17696;SDS011;8967;47.984;7.842;2023-08-06T07:09:46;1.60;;;0.40;;
17696;SDS011;8967;47.984;7.842;2023-08-06T07:12:13;1.83;;;0.52;;
17696;SDS011;8967;47.984;7.842;2023-08-06T07:14:39;1.05;;;0.63;;
17696;SDS011;8967;47.984;7.842;2023-08-06T07:17:06;2.92;;;0.82;;
17696;SDS011;8967;47.984;7.842;2023-08-06T07:19:34;1.05;;;0.60;;
17696;SDS011;8967;47.984;7.842;2023-08-06T07:22:01;1.55;;;0.70;;
17696;SDS011;8967;47.984;7.842;2023-08-06T07:24:28;1.27;;;0.60;;
17696;SDS011;8967;47.984;7.842;2023-08-06T07:26:55;2.50;;;0.65;;
17696;SDS011;8967;47.984;7.842;2023-08-06T07:29:22;3.60;;;0.40;;
17696;SDS011;8967;47.984;7.842;2023-08-06T07:31:49;1.50;;;0.60;;
17696;SDS011;8967;47.984;7.842;2023-08-06T07:34:16;1.08;;;0.50;;
17696;SDS011;8967;47.984;7.842;2023-08-06T07:36:45;0.63;;;0.38;;
17696;SDS011;8967;47.984;7.842;2023-08-06T07:39:14;1.15;;;0.52;;
17696;SDS011;8967;47.984;7.842;2023-08-06T07:41:42;0.50;;;0.43;;
17696;SDS011;8967;47.984;7.842;2023-08-06T07:44:11;0.73;;;0.40;;
17696;SDS011;8967;47.984;7.842;2023-08-06T07:46:37;0.45;;;0.40;;
17696;SDS011;8967;47.984;7.842;2023-08-06T07:49:04;0.63;;;0.38;;
17696;SDS011;8967;47.984;7.842;2023-08-06T07:51:31;0.65;;;0.30;;
17696;SDS011;8967;47.984;7.842;2023-08-06T07:54:00;0.45;;;0.30;;
17696;SDS011;8967;47.984;7.842;2023-08-06T07:56:26;0.32;;;0.32;;
17696;SDS011;8967;47.984;7.842;2023-08-06T07:58:53;0.30;;;0.30;;
17696;SDS011;8967;47.984;7.842;2023-08-06T08:01:20;2.35;;;0.30;;
17696;SDS011;8967;47.984;7.842;2023-08-06T08:03:47;0.47;;;0.30;;
17696;SDS011;8967;47.984;7.842;2023-08-06T08:06:14;0.43;;;0.30;;
17696;SDS011;8967;47.984;7.842;2023-08-06T08:08:41;0.30;;;0.30;;
17696;SDS011;8967;47.984;7.842;2023-08-06T08:11:09;0.28;;;0.28;;
17696;SDS011;8967;47.984;7.842;2023-08-06T08:13:38;0.57;;;0.20;;
17696;SDS011;8967;47.984;7.842;2023-08-06T08:16:05;1.50;;;0.50;;
17696;SDS011;8967;47.984;7.842;2023-08-06T08:18:32;1.08;;;0.40;;
17696;SDS011;8967;47.984;7.842;2023-08-06T08:20:59;0.65;;;0.30;;
17696;SDS011;8967;47.984;7.842;2023-08-06T08:23:26;3.05;;;0.50;;
17696;SDS011;8967;47.984;7.842;2023-08-06T08:25:52;0.70;;;0.45;;
17696;SDS011;8967;47.984;7.842;2023-08-06T08:28:23;1.70;;;0.43;;
17696;SDS011;8967;47.984;7.842;2023-08-06T08:30:50;0.38;;;0.30;;
17696;SDS011;8967;47.984;7.842;2023-08-06T08:33:17;0.68;;;0.38;;
17696;SDS011;8967;47.984;7.842;2023-08-06T08:35:45;0.30;;;0.30;;
17696;SDS011;8967;47.984;7.842;2023-08-06T08:38:12;2.15;;;0.30;;
17696;SDS011;8967;47.984;7.842;2023-08-06T08:40:41;0.60;;;0.50;;
17696;SDS011;8967;47.984;7.842;2023-08-06T08:43:12;0.40;;;0.40;;
17696;SDS011;8967;47.984;7.842;2023-08-06T08:45:42;0.45;;;0.30;;
17696;SDS011;8967;47.984;7.842;2023-08-06T08:48:10;1.00;;;0.90;;
17696;SDS011;8967;47.984;7.842;2023-08-06T08:50:42;3.67;;;0.90;;
17696;SDS011;8967;47.984;7.842;2023-08-06T08:53:10;0.50;;;0.50;;
17696;SDS011;8967;47.984;7.842;2023-08-06T08:55:39;0.65;;;0.40;;
17696;SDS011;8967;47.984;7.842;2023-08-06T08:58:06;0.63;;;0.40;;
17696;SDS011;8967;47.984;7.842;2023-08-06T09:00:33;1.30;;;0.38;;
17696;SDS011;8967;47.984;7.842;2023-08-06T09:03:05;5.13;;;0.40;;
17696;SDS011;8967;47.984;7.842;2023-08-06T09:05:35;3.40;;;0.40;;
17696;SDS011;8967;47.984;7.842;2023-08-06T09:08:03;0.73;;;0.30;;
17696;SDS011;8967;47.984;7.842;2023-08-06T09:10:31;1.35;;;0.38;;
17696;SDS011;8967;47.984;7.842;2023-08-06T09:12:59;1.05;;;0.45;;
17696;SDS011;8967;47.984;7.842;2023-08-06T09:15:31;0.32;;;0.30;;
17696;SDS011;8967;47.984;7.842;2023-08-06T09:17:59;0.93;;;0.50;;
17696;SDS011;8967;47.984;7.842;2023-08-06T09:20:27;0.82;;;0.50;;
17696;SDS011;8967;47.984;7.842;2023-08-06T09:22:54;0.73;;;0.40;;
17696;SDS011;8967;47.984;7.842;2023-08-06T09:25:21;0.65;;;0.40;;
17696;SDS011;8967;47.984;7.842;2023-08-06T09:27:50;2.70;;;0.68;;
17696;SDS011;8967;47.984;7.842;2023-08-06T09:30:28;1.08;;;0.43;;
17696;SDS011;8967;47.984;7.842;2023-08-06T09:32:56;1.13;;;0.40;;
17696;SDS011;8967;47.984;7.842;2023-08-06T09:35:23;1.70;;;0.43;;
17696;SDS011;8967;47.984;7.842;2023-08-06T09:37:52;0.40;;;0.40;;
17696;SDS011;8967;47.984;7.842;2023-08-06T09:40:25;0.80;;;0.30;;
17696;SDS011;8967;47.984;7.842;2023-08-06T09:42:53;1.10;;;0.28;;
17696;SDS011;8967;47.984;7.842;2023-08-06T09:45:20;0.25;;;0.25;;
17696;SDS011;8967;47.984;7.842;2023-08-06T09:47:48;0.30;;;0.30;;
17696;SDS011;8967;47.984;7.842;2023-08-06T09:50:16;0.75;;;0.25;;
17696;SDS011;8967;47.984;7.842;2023-08-06T09:52:43;0.40;;;0.40;;
17696;SDS011;8967;47.984;7.842;2023-08-06T09:55:12;0.43;;;0.38;;
17696;SDS011;8967;47.984;7.842;2023-08-06T09:57:40;0.40;;;0.35;;
17696;SDS011;8967;47.984;7.842;2023-08-06T10:00:08;1.35;;;0.50;;
17696;SDS011;8967;47.984;7.842;2023-08-06T10:02:39;2.42;;;0.30;;
17696;SDS011;8967;47.984;7.842;2023-08-06T10:05:07;0.52;;;0.45;;
17696;SDS011;8967;47.984;7.842;2023-08-06T10:07:34;1.52;;;0.30;;
17696;SDS011;8967;47.984;7.842;2023-08-06T10:10:04;1.55;;;0.50;;
17696;SDS011;8967;47.984;7.842;2023-08-06T10:12:34;0.30;;;0.30;;
17696;SDS011;8967;47.984;7.842;2023-08-06T10:15:08;0.40;;;0.40;;
17696;SDS011;8967;47.984;7.842;2023-08-06T10:17:38;2.28;;;0.85;;
17696;SDS011;8967;47.984;7.842;2023-08-06T10:20:07;0.80;;;0.65;;
17696;SDS011;8967;47.984;7.842;2023-08-06T10:22:35;0.40;;;0.40;;
17696;SDS011;8967;47.984;7.842;2023-08-06T10:25:02;2.83;;;0.57;;
17696;SDS011;8967;47.984;7.842;2023-08-06T10:27:31;1.63;;;0.50;;
17696;SDS011;8967;47.984;7.842;2023-08-06T10:32:47;0.45;;;0.45;;
17696;SDS011;8967;47.984;7.842;2023-08-06T10:35:27;0.40;;;0.30;;
17696;SDS011;8967;47.984;7.842;2023-08-06T10:38:03;0.40;;;0.40;;
17696;SDS011;8967;47.984;7.842;2023-08-06T10:40:31;0.52;;;0.30;;
17696;SDS011;8967;47.984;7.842;2023-08-06T10:43:00;0.38;;;0.38;;
17696;SDS011;8967;47.984;7.842;2023-08-06T10:45:36;0.75;;;0.40;;
17696;SDS011;8967;47.984;7.842;2023-08-06T10:48:08;0.35;;;0.32;;
17696;SDS011;8967;47.984;7.842;2023-08-06T10:50:41;0.50;;;0.50;;
17696;SDS011;8967;47.984;7.842;2023-08-06T10:53:08;0.55;;;0.30;;
17696;SDS011;8967;47.984;7.842;2023-08-06T10:55:38;0.30;;;0.30;;
17696;SDS011;8967;47.984;7.842;2023-08-06T10:58:07;0.40;;;0.40;;
17696;SDS011;8967;47.984;7.842;2023-08-06T11:00:36;0.35;;;0.35;;
17696;SDS011;8967;47.984;7.842;2023-08-06T11:03:03;0.77;;;0.50;;
17696;SDS011;8967;47.984;7.842;2023-08-06T11:05:30;0.20;;;0.20;;
17696;SDS011;8967;47.984;7.842;2023-08-06T11:07:57;1.08;;;0.85;;
17696;SDS011;8967;47.984;7.842;2023-08-06T11:10:24;0.60;;;0.50;;
17696;SDS011;8967;47.984;7.842;2023-08-06T11:12:50;1.02;;;0.60;;
17696;SDS011;8967;47.984;7.842;2023-08-06T11:15:19;4.32;;;0.70;;
17696;SDS011;8967;47.984;7.842;2023-08-06T11:17:47;0.40;;;0.40;;
17696;SDS011;8967;47.984;7.842;2023-08-06T11:20:14;0.45;;;0.40;;
17696;SDS011;8967;47.984;7.842;2023-08-06T11:22:41;0.40;;;0.40;;
17696;SDS011;8967;47.984;7.842;2023-08-06T11:25:08;0.57;;;0.57;;
17696;SDS011;8967;47.984;7.842;2023-08-06T11:27:35;0.55;;;0.50;;
17696;SDS011;8967;47.984;7.842;2023-08-06T11:30:02;0.90;;;0.55;;
17696;SDS011;8967;47.984;7.842;2023-08-06T11:32:30;0.32;;;0.32;;
17696;SDS011;8967;47.984;7.842;2023-08-06T11:34:58;3.70;;;0.60;;
17696;SDS011;8967;47.984;7.842;2023-08-06T11:37:25;0.30;;;0.30;;
17696;SDS011;8967;47.984;7.842;2023-08-06T11:39:52;0.30;;;0.30;;
17696;SDS011;8967;47.984;7.842;2023-08-06T11:42:21;0.43;;;0.30;;
17696;SDS011;8967;47.984;7.842;2023-08-06T11:44:50;1.30;;;0.45;;
17696;SDS011;8967;47.984;7.842;2023-08-06T11:47:17;0.40;;;0.35;;
17696;SDS011;8967;47.984;7.842;2023-08-06T11:49:45;0.32;;;0.25;;
17696;SDS011;8967;47.984;7.842;2023-08-06T11:52:14;0.65;;;0.40;;
17696;SDS011;8967;47.984;7.842;2023-08-06T11:54:44;0.63;;;0.52;;
17696;SDS011;8967;47.984;7.842;2023-08-06T11:57:15;0.40;;;0.40;;
17696;SDS011;8967;47.984;7.842;2023-08-06T11:59:42;0.30;;;0.30;;
17696;SDS011;8967;47.984;7.842;2023-08-06T12:02:11;0.40;;;0.20;;
17696;SDS011;8967;47.984;7.842;2023-08-06T12:07:40;1.15;;;0.45;;
17696;SDS011;8967;47.984;7.842;2023-08-06T12:10:09;1.95;;;1.00;;
17696;SDS011;8967;47.984;7.842;2023-08-06T12:12:37;1.50;;;1.20;;
17696;SDS011;8967;47.984;7.842;2023-08-06T12:15:06;4.80;;;1.27;;
17696;SDS011;8967;47.984;7.842;2023-08-06T12:17:34;1.08;;;0.70;;
17696;SDS011;8967;47.984;7.842;2023-08-06T12:20:04;0.80;;;0.63;;
17696;SDS011;8967;47.984;7.842;2023-08-06T12:22:33;1.85;;;0.40;;
17696;SDS011;8967;47.984;7.842;2023-08-06T12:25:01;0.47;;;0.30;;
17696;SDS011;8967;47.984;7.842;2023-08-06T12:27:29;0.43;;;0.40;;
17696;SDS011;8967;47.984;7.842;2023-08-06T12:29:55;0.40;;;0.40;;
17696;SDS011;8967;47.984;7.842;2023-08-06T12:32:22;0.40;;;0.40;;
17696;SDS011;8967;47.984;7.842;2023-08-06T12:34:49;0.63;;;0.30;;
17696;SDS011;8967;47.984;7.842;2023-08-06T12:37:18;0.38;;;0.38;;
17696;SDS011;8967;47.984;7.842;2023-08-06T12:39:46;0.30;;;0.30;;
17696;SDS011;8967;47.984;7.842;2023-08-06T12:42:13;1.05;;;0.90;;
17696;SDS011;8967;47.984;7.842;2023-08-06T12:44:40;1.23;;;1.13;;
17696;SDS011;8967;47.984;7.842;2023-08-06T12:47:07;0.68;;;0.40;;
17696;SDS011;8967;47.984;7.842;2023-08-06T12:49:36;2.38;;;0.70;;
17696;SDS011;8967;47.984;7.842;2023-08-06T12:52:03;2.08;;;0.98;;
17696;SDS011;8967;47.984;7.842;2023-08-06T12:54:32;4.05;;;1.25;;
17696;SDS011;8967;47.984;7.842;2023-08-06T12:57:03;0.40;;;0.40;;
17696;SDS011;8967;47.984;7.842;2023-08-06T12:59:30;1.40;;;0.70;;
17696;SDS011;8967;47.984;7.842;2023-08-06T13:01:58;1.17;;;0.47;;
17696;SDS011;8967;47.984;7.842;2023-08-06T13:04:25;0.57;;;0.57;;
17696;SDS011;8967;47.984;7.842;2023-08-06T13:06:55;0.60;;;0.60;;
17696;SDS011;8967;47.984;7.842;2023-08-06T13:09:22;3.42;;;1.00;;
17696;SDS011;8967;47.984;7.842;2023-08-06T13:11:49;0.80;;;0.80;;
17696;SDS011;8967;47.984;7.842;2023-08-06T13:14:20;1.20;;;1.10;;
17696;SDS011;8967;47.984;7.842;2023-08-06T13:16:47;2.30;;;0.65;;
17696;SDS011;8967;47.984;7.842;2023-08-06T13:19:13;0.57;;;0.57;;
17696;SDS011;8967;47.984;7.842;2023-08-06T13:24:37;0.57;;;0.52;;
17696;SDS011;8967;47.984;7.842;2023-08-06T13:27:06;0.75;;;0.75;;
17696;SDS011;8967;47.984;7.842;2023-08-06T13:29:36;1.13;;;1.02;;
17696;SDS011;8967;47.984;7.842;2023-08-06T13:32:03;1.30;;;1.00;;
17696;SDS011;8967;47.984;7.842;2023-08-06T13:34:30;1.58;;;0.73;;
17696;SDS011;8967;47.984;7.842;2023-08-06T13:36:57;1.20;;;0.60;;
17696;SDS011;8967;47.984;7.842;2023-08-06T13:39:24;0.55;;;0.52;;
17696;SDS011;8967;47.984;7.842;2023-08-06T13:41:50;0.90;;;0.63;;
17696;SDS011;8967;47.984;7.842;2023-08-06T13:44:17;0.85;;;0.73;;
17696;SDS011;8967;47.984;7.842;2023-08-06T13:46:48;1.15;;;0.80;;
17696;SDS011;8967;47.984;7.842;2023-08-06T13:49:14;0.70;;;0.60;;
17696;SDS011;8967;47.984;7.842;2023-08-06T13:51:41;0.50;;;0.50;;
17696;SDS011;8967;47.984;7.842;2023-08-06T13:54:08;1.20;;;0.60;;
17696;SDS011;8967;47.984;7.842;2023-08-06T13:56:35;1.20;;;0.50;;
17696;SDS011;8967;47.984;7.842;2023-08-06T13:59:03;0.70;;;0.70;;
17696;SDS011;8967;47.984;7.842;2023-08-06T14:01:30;1.30;;;0.80;;
17696;SDS011;8967;47.984;7.842;2023-08-06T14:04:01;2.67;;;1.00;;
17696;SDS011;8967;47.984;7.842;2023-08-06T14:06:28;0.88;;;0.52;;
17696;SDS011;8967;47.984;7.842;2023-08-06T14:08:55;0.57;;;0.55;;
17696;SDS011;8967;47.984;7.842;2023-08-06T14:11:22;1.15;;;0.70;;
17696;SDS011;8967;47.984;7.842;2023-08-06T14:13:49;0.55;;;0.50;;
17696;SDS011;8967;47.984;7.842;2023-08-06T14:16:16;0.85;;;0.73;;
17696;SDS011;8967;47.984;7.842;2023-08-06T14:18:45;2.88;;;0.88;;
17696;SDS011;8967;47.984;7.842;2023-08-06T14:21:13;1.27;;;0.57;;
17696;SDS011;8967;47.984;7.842;2023-08-06T14:23:40;2.28;;;0.60;;
17696;SDS011;8967;47.984;7.842;2023-08-06T14:26:07;1.20;;;0.70;;
17696;SDS011;8967;47.984;7.842;2023-08-06T14:28:35;4.18;;;0.70;;
17696;SDS011;8967;47.984;7.842;2023-08-06T14:31:02;1.15;;;0.70;;
17696;SDS011;8967;47.984;7.842;2023-08-06T14:33:29;2.60;;;1.10;;
17696;SDS011;8967;47.984;7.842;2023-08-06T14:35:56;1.58;;;0.98;;
17696;SDS011;8967;47.984;7.842;2023-08-06T14:38:27;1.63;;;0.70;;
17696;SDS011;8967;47.984;7.842;2023-08-06T14:40:53;1.50;;;0.77;;
17696;SDS011;8967;47.984;7.842;2023-08-06T14:43:23;2.05;;;0.70;;
17696;SDS011;8967;47.984;7.842;2023-08-06T14:45:50;1.65;;;0.80;;
17696;SDS011;8967;47.984;7.842;2023-08-06T14:48:16;1.42;;;0.80;;
17696;SDS011;8967;47.984;7.842;2023-08-06T14:50:43;2.63;;;0.73;;
17696;SDS011;8967;47.984;7.842;2023-08-06T14:53:12;1.17;;;0.60;;
17696;SDS011;8967;47.984;7.842;2023-08-06T14:55:41;0.68;;;0.68;;
17696;SDS011;8967;47.984;7.842;2023-08-06T14:58:08;1.75;;;0.60;;
17696;SDS011;8967;47.984;7.842;2023-08-06T15:00:35;1.40;;;0.77;;
17696;SDS011;8967;47.984;7.842;2023-08-06T15:03:04;0.70;;;0.70;;
17696;SDS011;8967;47.984;7.842;2023-08-06T15:05:31;0.93;;;0.60;;
17696;SDS011;8967;47.984;7.842;2023-08-06T15:07:58;0.70;;;0.70;;
17696;SDS011;8967;47.984;7.842;2023-08-06T15:10:25;1.90;;;0.80;;
17696;SDS011;8967;47.984;7.842;2023-08-06T15:12:53;1.48;;;1.05;;
17696;SDS011;8967;47.984;7.842;2023-08-06T15:15:23;1.20;;;0.80;;
17696;SDS011;8967;47.984;7.842;2023-08-06T15:17:50;1.33;;;0.80;;